Αρχική σελίδα
METAR-TAF:

METAR-TAF

Αεροδρόμια :

Πλατφόρμα πετρελαίου

Sleipner, Νορβηγία

γεωγραφικό πλάτος: 58-22-00N, γεωγραφικό μήκος: 001-54-25E, υψόμετρο: 50 μ

Παρών καιρός

Η αναφορά έγινε 34 λεπτά πριν, στις 06:50 UTC
Άνεμος 7 kt από Δ/BΔ
Θερμοκρασία 13°C
Υγρασία 100%
Πίεση 1006 hPa
Ορατότητα: 1600 μ
Αχλής,

METAR: ENSL 150650Z AUTO 30007KT 1600 BR BKN005/// 13/13 Q1006 W12/S3

Χρόνος: 09:24 (07:24 UTC)


TAF: λείπει

Μετεωρολογικές αναφορές και προγνώσεις για περισσότερα από 4000 αεροδρόμια (δελτία METAR και TAF).

Οι διαθέσιμοι σταθμοί απεικονίζονται στο χάρτη με κίτρινες και κόκκινες κουκκίδες.

Μετακινήστε το ποντίκι πάνω από τις κουκκίδες για να δείτε το όνομα του σταθμού.

Στη συνέχεια, κάντε κλικ για να δείτε τις μετεωρολογικές αναφορές και τις προγνώσεις καιρού.

Για να αλλάξετε το χάρτη: κάντε κλικ στα πράσινα κουμπιά με τον μαύρο σταυρό για να ζουμάρετε, στο πράσινο κουμπί με την παύλα για να αφαιρέσετε το ζουμ ή στα πράσινα βέλη για να αντιπαραβάλλετε χάρτες.


METAR-TAF: